createdAt,value
2019-05-09T00:00:14.130Z,75.87
2019-05-09T00:01:17.735Z,75.63
2019-05-09T00:02:28.648Z,75.60
2019-05-09T00:03:33.458Z,75.50
2019-05-09T00:04:37.218Z,75.60
2019-05-09T00:05:40.708Z,75.74
2019-05-09T00:06:44.327Z,75.95
2019-05-09T00:07:47.778Z,75.66
2019-05-09T00:08:53.240Z,75.48
2019-05-09T00:09:56.593Z,75.50
2019-05-09T00:11:00.152Z,75.41
2019-05-09T00:12:03.895Z,75.97
2019-05-09T00:13:07.430Z,75.98
2019-05-09T00:14:12.978Z,76.15
2019-05-09T00:15:16.334Z,76.03
2019-05-09T00:16:19.906Z,75.58
2019-05-09T00:17:23.430Z,75.55
2019-05-09T00:18:26.899Z,75.63
2019-05-09T00:19:30.438Z,75.80
2019-05-09T00:20:38.001Z,75.60
2019-05-09T00:21:43.711Z,75.40
2019-05-09T00:22:47.338Z,75.37
2019-05-09T00:23:50.886Z,75.75
2019-05-09T00:24:54.358Z,76.20
2019-05-09T00:25:57.913Z,76.15
2019-05-09T00:27:03.644Z,75.68
2019-05-09T00:28:07.081Z,76.16
2019-05-09T00:29:14.050Z,76.19
2019-05-09T00:30:19.155Z,76.17
2019-05-09T00:31:24.318Z,76.13
2019-05-09T00:32:34.082Z,76.12
2019-05-09T00:33:37.371Z,76.50
2019-05-09T00:34:44.184Z,76.55
2019-05-09T00:35:47.712Z,76.45
2019-05-09T00:36:51.211Z,76.58
2019-05-09T00:37:58.757Z,76.41
2019-05-09T00:39:04.086Z,76.45
2019-05-09T00:40:07.546Z,76.60
2019-05-09T00:41:11.087Z,76.79
2019-05-09T00:42:14.647Z,76.11
2019-05-09T00:43:18.182Z,76.24
2019-05-09T00:44:28.811Z,76.41
2019-05-09T00:45:33.979Z,76.22
2019-05-09T00:46:53.413Z,76.48
2019-05-09T00:47:56.462Z,76.54
2019-05-09T00:49:07.362Z,76.82
2019-05-09T00:50:13.115Z,77.14
2019-05-09T00:51:16.236Z,77.35
2019-05-09T00:52:19.727Z,77.38
2019-05-09T00:53:23.353Z,77.47
2019-05-09T00:54:26.977Z,77.41
2019-05-09T00:55:30.522Z,77.20
2019-05-09T00:56:34.066Z,77.38
2019-05-09T00:57:37.556Z,77.43
2019-05-09T00:58:41.027Z,77.29
2019-05-09T00:59:44.685Z,77.53
2019-05-09T01:00:48.302Z,77.69
2019-05-09T01:01:54.139Z,77.84
2019-05-09T01:02:57.111Z,78.12
2019-05-09T01:04:00.578Z,78.00
2019-05-09T01:05:04.690Z,78.15
2019-05-09T01:06:08.230Z,78.17
2019-05-09T01:07:13.796Z,78.12
2019-05-09T01:08:16.961Z,78.13
2019-05-09T01:09:20.423Z,78.13
2019-05-09T01:10:23.979Z,78.08
2019-05-09T01:11:27.508Z,78.17
2019-05-09T01:12:31.014Z,78.45
2019-05-09T01:13:34.546Z,78.59
2019-05-09T01:14:38.151Z,78.59
2019-05-09T01:15:43.876Z,78.59
2019-05-09T01:16:46.960Z,78.64
2019-05-09T01:17:50.496Z,78.43
2019-05-09T01:18:54.618Z,78.57
2019-05-09T01:19:59.089Z,78.54
2019-05-09T01:21:04.012Z,78.70
2019-05-09T01:22:07.755Z,78.76
2019-05-09T01:23:11.221Z,78.59
2019-05-09T01:24:14.756Z,78.55
2019-05-09T01:25:18.218Z,78.38
2019-05-09T01:26:23.952Z,78.47
2019-05-09T01:27:26.960Z,78.46
2019-05-09T01:28:30.424Z,78.44
2019-05-09T01:29:33.981Z,78.44
2019-05-09T01:30:37.505Z,78.52
2019-05-09T01:31:41.037Z,78.76
2019-05-09T01:32:53.933Z,78.81
2019-05-09T01:33:58.922Z,78.72
2019-05-09T01:35:03.845Z,78.74
2019-05-09T01:36:07.503Z,78.75
2019-05-09T01:37:14.118Z,78.77
2019-05-09T01:38:17.441Z,78.70
2019-05-09T01:39:20.933Z,78.73
2019-05-09T01:40:24.400Z,78.92
2019-05-09T01:41:33.406Z,78.90
2019-05-09T01:42:33.781Z,78.87
2019-05-09T01:43:37.485Z,78.71
2019-05-09T01:44:40.949Z,78.81
2019-05-09T01:45:46.915Z,78.50
2019-05-09T01:46:49.750Z,78.51
2019-05-09T01:47:53.756Z,78.43
2019-05-09T01:48:57.381Z,78.38
2019-05-09T01:50:03.743Z,78.44
2019-05-09T01:51:06.253Z,78.33
2019-05-09T01:52:09.730Z,78.52
2019-05-09T01:53:14.834Z,78.82
2019-05-09T01:54:19.294Z,78.82
2019-05-09T01:55:24.643Z,78.72
2019-05-09T01:56:28.106Z,78.58
2019-05-09T01:57:33.653Z,78.52
2019-05-09T01:58:36.837Z,78.56
2019-05-09T01:59:40.389Z,78.58
2019-05-09T02:00:43.988Z,78.34
2019-05-09T02:01:47.457Z,78.13
2019-05-09T02:02:50.925Z,78.10
2019-05-09T02:03:54.457Z,78.16
2019-05-09T02:04:58.015Z,77.71
2019-05-09T02:06:03.547Z,77.92
2019-05-09T02:07:07.031Z,77.82
2019-05-09T02:08:10.572Z,77.67
2019-05-09T02:09:14.199Z,77.63
2019-05-09T02:10:17.806Z,77.50
2019-05-09T02:11:23.623Z,77.48
2019-05-09T02:12:26.449Z,77.46
2019-05-09T02:13:29.913Z,77.53
2019-05-09T02:14:43.869Z,77.56
2019-05-09T02:15:57.709Z,77.54
2019-05-09T02:17:18.901Z,77.72
2019-05-09T02:18:26.983Z,77.80
2019-05-09T02:19:34.687Z,77.44
2019-05-09T02:20:38.184Z,77.42
2019-05-09T02:21:43.648Z,77.33
2019-05-09T02:22:46.922Z,77.25
2019-05-09T02:23:50.523Z,77.05
2019-05-09T02:24:54.077Z,76.80
2019-05-09T02:25:57.582Z,76.60
2019-05-09T02:27:01.049Z,76.35
2019-05-09T02:28:04.656Z,76.31
2019-05-09T02:29:08.128Z,76.28
2019-05-09T02:30:15.323Z,76.46
2019-05-09T02:31:17.471Z,76.46
2019-05-09T02:32:23.750Z,76.43
2019-05-09T02:33:26.179Z,76.49
2019-05-09T02:34:29.660Z,76.50
2019-05-09T02:35:43.406Z,76.16
2019-05-09T02:36:38.599Z,76.33
2019-05-09T02:37:42.042Z,76.53
2019-05-09T02:38:48.576Z,76.54
2019-05-09T02:39:50.835Z,76.50
2019-05-09T02:40:54.335Z,76.34
2019-05-09T02:42:08.015Z,76.33
2019-05-09T02:43:03.223Z,76.38
2019-05-09T02:44:09.339Z,76.21
2019-05-09T02:45:12.523Z,76.08
2019-05-09T02:46:32.441Z,76.35
2019-05-09T02:47:38.510Z,76.46
2019-05-09T02:48:41.186Z,76.28
2019-05-09T02:49:44.654Z,75.82
2019-05-09T02:50:48.734Z,75.98
2019-05-09T02:51:52.266Z,76.16
2019-05-09T02:52:58.871Z,76.08
2019-05-09T02:54:00.904Z,76.08
2019-05-09T02:55:05.520Z,75.94
2019-05-09T02:56:09.462Z,75.95
2019-05-09T02:57:13.048Z,75.97
2019-05-09T02:58:20.286Z,75.98
2019-05-09T02:59:24.986Z,75.80
2019-05-09T03:00:48.311Z,75.82
2019-05-09T03:01:53.468Z,75.89
2019-05-09T03:02:59.507Z,75.85
2019-05-09T03:04:03.307Z,75.91
2019-05-09T03:05:08.825Z,75.91
2019-05-09T03:06:12.595Z,75.94
2019-05-09T03:07:18.873Z,75.76
2019-05-09T03:08:21.406Z,76.15
2019-05-09T03:09:25.008Z,76.54
2019-05-09T03:10:29.559Z,76.65
2019-05-09T03:11:33.178Z,76.64
2019-05-09T03:12:39.895Z,76.65
2019-05-09T03:13:41.977Z,76.49
2019-05-09T03:14:48.545Z,76.42
2019-05-09T03:15:52.475Z,76.33
2019-05-09T03:16:58.710Z,76.26
2019-05-09T03:18:01.219Z,76.30
2019-05-09T03:19:04.824Z,76.29
2019-05-09T03:20:10.773Z,76.31
2019-05-09T03:21:30.841Z,76.34
2019-05-09T03:22:34.323Z,76.66
2019-05-09T03:23:38.792Z,76.91
2019-05-09T03:24:42.640Z,76.84
2019-05-09T03:25:48.408Z,76.87
2019-05-09T03:26:59.658Z,77.15
2019-05-09T03:28:10.711Z,77.41
2019-05-09T03:29:31.012Z,77.80
2019-05-09T03:30:39.882Z,78.15
2019-05-09T03:31:43.988Z,78.51
2019-05-09T03:32:49.020Z,78.51
2019-05-09T03:33:52.626Z,78.45
2019-05-09T03:34:58.001Z,78.32
2019-05-09T03:36:01.348Z,78.26
2019-05-09T03:37:04.905Z,78.18
2019-05-09T03:38:08.597Z,78.10
2019-05-09T03:39:12.082Z,78.02
2019-05-09T03:40:17.945Z,78.12
2019-05-09T03:41:20.806Z,78.14
2019-05-09T03:42:38.072Z,78.03
2019-05-09T03:43:29.560Z,77.56
2019-05-09T03:44:33.104Z,77.39
2019-05-09T03:45:41.134Z,77.30
2019-05-09T03:46:52.042Z,77.31
2019-05-09T03:47:58.252Z,77.28
2019-05-09T03:49:07.527Z,77.40
2019-05-09T03:50:17.651Z,77.40
2019-05-09T03:51:21.496Z,77.34
2019-05-09T03:52:24.984Z,77.35
2019-05-09T03:53:28.478Z,77.36
2019-05-09T03:54:31.976Z,77.38
2019-05-09T03:55:38.184Z,77.38
2019-05-09T03:56:48.058Z,76.98
2019-05-09T03:57:59.099Z,76.79
2019-05-09T03:59:02.652Z,76.49
2019-05-09T04:00:08.355Z,76.54
2019-05-09T04:01:11.819Z,76.58
2019-05-09T04:02:17.654Z,76.60
2019-05-09T04:03:20.981Z,76.46
2019-05-09T04:04:24.521Z,76.48
2019-05-09T04:05:28.044Z,76.71
2019-05-09T04:06:31.507Z,76.88
2019-05-09T04:07:34.991Z,76.97
2019-05-09T04:08:38.463Z,76.90
2019-05-09T04:09:41.920Z,76.71
2019-05-09T04:10:49.947Z,76.72
2019-05-09T04:11:52.234Z,76.85
2019-05-09T04:12:58.986Z,76.83
2019-05-09T04:14:08.458Z,76.91
2019-05-09T04:15:12.014Z,76.85
2019-05-09T04:16:17.344Z,76.71
2019-05-09T04:17:20.758Z,76.65
2019-05-09T04:18:24.226Z,76.63
2019-05-09T04:19:27.778Z,76.53
2019-05-09T04:20:31.236Z,76.62
2019-05-09T04:21:34.772Z,76.70
2019-05-09T04:22:38.644Z,76.77
2019-05-09T04:23:42.112Z,76.65
2019-05-09T04:24:47.389Z,76.78
2019-05-09T04:25:52.819Z,76.76
2019-05-09T04:27:01.093Z,76.69
2019-05-09T04:28:07.352Z,76.67
2019-05-09T04:29:10.469Z,76.78
2019-05-09T04:30:15.544Z,77.13
2019-05-09T04:31:19.012Z,77.29
2019-05-09T04:32:22.544Z,77.28
2019-05-09T04:33:27.949Z,77.51
2019-05-09T04:34:31.285Z,77.47
2019-05-09T04:35:34.754Z,77.57
2019-05-09T04:36:41.269Z,77.82
2019-05-09T04:37:44.736Z,78.07
2019-05-09T04:38:48.217Z,77.79
2019-05-09T04:39:54.064Z,77.79
2019-05-09T04:40:58.426Z,77.75
2019-05-09T04:42:05.491Z,77.83
2019-05-09T04:43:15.401Z,78.01
2019-05-09T04:44:19.312Z,78.46
2019-05-09T04:45:23.652Z,78.74
2019-05-09T04:46:27.747Z,78.86
2019-05-09T04:47:33.923Z,78.92
2019-05-09T04:48:37.612Z,79.11
2019-05-09T04:49:45.113Z,79.02
2019-05-09T04:50:47.857Z,79.06
2019-05-09T04:51:51.346Z,79.08
2019-05-09T04:52:54.880Z,79.11
2019-05-09T04:53:58.495Z,79.10
2019-05-09T04:55:01.918Z,79.06
2019-05-09T04:56:07.277Z,79.07
2019-05-09T04:57:10.830Z,79.15
2019-05-09T04:58:14.292Z,79.15
2019-05-09T04:59:18.110Z,79.22
2019-05-09T05:00:23.251Z,79.20
2019-05-09T05:01:31.132Z,79.25
2019-05-09T05:02:41.895Z,79.23
2019-05-09T05:03:47.905Z,79.25
2019-05-09T05:04:51.067Z,79.20
2019-05-09T05:05:54.530Z,79.23
2019-05-09T05:06:58.665Z,79.22
2019-05-09T05:08:02.222Z,79.16
2019-05-09T05:09:10.104Z,79.18
2019-05-09T05:10:13.833Z,79.21
2019-05-09T05:11:17.904Z,79.36
2019-05-09T05:12:21.495Z,79.48
2019-05-09T05:13:27.320Z,79.58
2019-05-09T05:14:30.191Z,79.73
2019-05-09T05:15:33.651Z,79.86
2019-05-09T05:16:39.217Z,79.88
2019-05-09T05:17:42.382Z,79.85
2019-05-09T05:18:47.817Z,79.73
2019-05-09T05:19:51.294Z,79.79
2019-05-09T05:20:54.930Z,80.00
2019-05-09T05:22:00.045Z,79.68
2019-05-09T05:23:05.206Z,79.55
2019-05-09T05:24:10.336Z,79.35
2019-05-09T05:25:13.970Z,79.25
2019-05-09T05:26:18.577Z,79.18
2019-05-09T05:27:22.052Z,79.24
2019-05-09T05:28:27.694Z,79.24
2019-05-09T05:29:30.835Z,79.06
2019-05-09T05:30:34.389Z,78.80
2019-05-09T05:31:38.790Z,78.76
2019-05-09T05:32:44.043Z,78.79
2019-05-09T05:33:53.835Z,78.80
2019-05-09T05:34:58.437Z,78.62
2019-05-09T05:36:09.372Z,78.64
2019-05-09T05:37:12.919Z,78.61
2019-05-09T05:38:17.649Z,78.61
2019-05-09T05:39:21.230Z,78.50
2019-05-09T05:40:24.727Z,78.55
2019-05-09T05:41:28.526Z,78.37
2019-05-09T05:42:32.028Z,77.44
2019-05-09T05:43:41.602Z,77.52
2019-05-09T05:44:40.756Z,77.41
2019-05-09T05:45:47.943Z,77.41
2019-05-09T05:47:01.799Z,77.07
2019-05-09T05:48:09.996Z,76.69
2019-05-09T05:49:13.472Z,76.24
2019-05-09T05:50:17.742Z,75.71
2019-05-09T05:51:21.244Z,75.33
2019-05-09T05:52:24.709Z,74.98
2019-05-09T05:53:28.174Z,74.60
2019-05-09T05:54:31.720Z,73.70
2019-05-09T05:55:35.188Z,72.97
2019-05-09T05:56:38.691Z,72.60
2019-05-09T05:57:42.151Z,72.72
2019-05-09T05:58:45.611Z,72.66
2019-05-09T05:59:49.147Z,72.12
2019-05-09T06:00:52.631Z,72.14
2019-05-09T06:01:58.300Z,71.84
2019-05-09T06:03:01.403Z,71.58
2019-05-09T06:04:04.948Z,71.36
2019-05-09T06:05:08.655Z,71.48
2019-05-09T06:06:12.201Z,71.42
2019-05-09T06:07:18.281Z,70.84
2019-05-09T06:08:21.339Z,70.44
2019-05-09T06:09:24.802Z,70.34
2019-05-09T06:10:29.041Z,69.91
2019-05-09T06:11:32.648Z,69.81
2019-05-09T06:12:38.077Z,69.91
2019-05-09T06:13:53.306Z,69.95
2019-05-09T06:14:48.063Z,69.59
2019-05-09T06:15:51.705Z,68.76
2019-05-09T06:16:55.337Z,68.76
2019-05-09T06:17:58.806Z,68.56
2019-05-09T06:19:02.555Z,68.06
2019-05-09T06:20:08.945Z,68.43
2019-05-09T06:21:11.778Z,68.72
2019-05-09T06:22:15.467Z,68.61
2019-05-09T06:23:19.010Z,68.37
2019-05-09T06:24:22.473Z,67.64
2019-05-09T06:25:30.047Z,67.23
2019-05-09T06:26:31.208Z,67.44
2019-05-09T06:27:34.762Z,67.48
2019-05-09T06:28:38.366Z,66.80
2019-05-09T06:29:41.912Z,66.87
2019-05-09T06:30:47.244Z,66.97
2019-05-09T06:31:50.659Z,66.98
2019-05-09T06:32:58.656Z,66.69
2019-05-09T06:34:02.259Z,65.61
2019-05-09T06:35:08.191Z,65.67
2019-05-09T06:36:11.360Z,65.94
2019-05-09T06:37:14.831Z,66.21
2019-05-09T06:38:18.878Z,66.30
2019-05-09T06:39:22.370Z,65.87
2019-05-09T06:40:26.573Z,65.14
2019-05-09T06:41:31.232Z,63.81
2019-05-09T06:42:34.735Z,64.72
2019-05-09T06:43:39.917Z,64.99
2019-05-09T06:44:50.917Z,64.38
2019-05-09T06:46:04.428Z,64.84
2019-05-09T06:47:15.360Z,65.31
2019-05-09T06:48:20.524Z,65.33
2019-05-09T06:49:31.794Z,65.49
2019-05-09T06:50:34.059Z,64.97
2019-05-09T06:51:38.751Z,64.43
2019-05-09T06:52:42.311Z,64.48
2019-05-09T06:53:45.800Z,64.61
2019-05-09T06:54:49.281Z,64.95
2019-05-09T06:55:52.824Z,65.31
2019-05-09T06:56:58.398Z,64.34
2019-05-09T06:58:03.150Z,63.96
2019-05-09T06:59:07.673Z,64.44
2019-05-09T07:00:13.369Z,64.65
2019-05-09T07:01:21.233Z,64.63
2019-05-09T07:02:28.287Z,64.70
2019-05-09T07:03:33.260Z,64.63
2019-05-09T07:04:38.388Z,63.28
2019-05-09T07:05:59.514Z,63.68
2019-05-09T07:07:08.105Z,63.64
2019-05-09T07:08:13.275Z,62.86
2019-05-09T07:09:18.417Z,62.16
2019-05-09T07:10:21.957Z,62.59
2019-05-09T07:11:27.568Z,62.78
2019-05-09T07:12:30.692Z,62.71
2019-05-09T07:13:34.174Z,62.26
2019-05-09T07:14:41.293Z,62.81
2019-05-09T07:15:42.851Z,62.77
2019-05-09T07:16:47.843Z,62.77
2019-05-09T07:17:51.940Z,62.43
2019-05-09T07:18:57.929Z,62.49
2019-05-09T07:20:01.557Z,62.40
2019-05-09T07:21:05.368Z,62.39
2019-05-09T07:22:18.442Z,62.68
2019-05-09T07:23:21.841Z,62.70
2019-05-09T07:24:28.492Z,62.93
2019-05-09T07:25:32.498Z,62.87
2019-05-09T07:26:37.342Z,62.70
2019-05-09T07:27:42.547Z,62.77
2019-05-09T07:28:48.396Z,61.25
2019-05-09T07:29:52.654Z,61.44
2019-05-09T07:31:04.013Z,61.38
2019-05-09T07:32:15.467Z,60.75
2019-05-09T07:33:23.492Z,60.44
2019-05-09T07:34:28.850Z,59.07
2019-05-09T07:35:32.409Z,59.14
2019-05-09T07:36:38.384Z,59.61
2019-05-09T07:37:41.781Z,59.52
2019-05-09T07:38:47.790Z,58.65
2019-05-09T07:39:51.626Z,59.31
2019-05-09T07:40:55.116Z,59.62
2019-05-09T07:41:58.644Z,59.53
2019-05-09T07:43:02.137Z,59.21
2019-05-09T07:44:07.585Z,58.79
2019-05-09T07:45:11.131Z,59.17
2019-05-09T07:46:28.863Z,58.95
2019-05-09T07:47:32.520Z,58.93
2019-05-09T07:48:38.209Z,58.45
2019-05-09T07:49:41.899Z,57.92
2019-05-09T07:50:45.371Z,58.19
2019-05-09T07:51:48.872Z,58.42
2019-05-09T07:52:52.335Z,58.66
2019-05-09T07:53:58.690Z,58.77
2019-05-09T07:55:01.579Z,58.69
2019-05-09T07:56:05.206Z,58.63
2019-05-09T07:57:08.792Z,58.70
2019-05-09T07:58:14.331Z,58.75
2019-05-09T07:59:18.170Z,58.62
2019-05-09T08:00:35.026Z,58.52
2019-05-09T08:01:38.655Z,57.31
2019-05-09T08:02:42.204Z,57.29
2019-05-09T08:03:45.789Z,57.33
2019-05-09T08:04:49.262Z,57.13
2019-05-09T08:05:53.519Z,56.85
2019-05-09T08:06:57.939Z,56.22
2019-05-09T08:08:01.737Z,56.43
2019-05-09T08:09:08.418Z,56.87
2019-05-09T08:10:12.207Z,57.02
2019-05-09T08:11:18.007Z,57.24
2019-05-09T08:12:21.272Z,57.32
2019-05-09T08:13:24.751Z,57.45
2019-05-09T08:14:28.388Z,57.45
2019-05-09T08:15:31.984Z,57.83
2019-05-09T08:16:37.785Z,57.82
2019-05-09T08:17:41.583Z,57.57
2019-05-09T08:18:45.060Z,56.62
2019-05-09T08:19:48.627Z,56.84
2019-05-09T08:20:52.061Z,56.25
2019-05-09T08:21:57.505Z,55.97
2019-05-09T08:23:02.331Z,56.55
2019-05-09T08:24:08.094Z,56.16
2019-05-09T08:25:11.497Z,56.53
2019-05-09T08:26:15.005Z,56.77
2019-05-09T08:27:18.686Z,56.71
2019-05-09T08:28:22.331Z,56.59
2019-05-09T08:29:28.192Z,56.50
2019-05-09T08:30:35.889Z,56.48
2019-05-09T08:31:40.097Z,56.46
2019-05-09T08:32:41.874Z,56.16
2019-05-09T08:33:45.492Z,56.30
2019-05-09T08:34:48.966Z,55.53
2019-05-09T08:35:52.922Z,55.52
2019-05-09T08:36:57.988Z,54.49
2019-05-09T08:38:01.787Z,54.13
2019-05-09T08:39:08.124Z,54.18
2019-05-09T08:40:11.892Z,54.46
2019-05-09T08:41:18.387Z,54.32
2019-05-09T08:42:21.342Z,54.71
2019-05-09T08:43:25.030Z,53.81
2019-05-09T08:44:31.237Z,53.80
2019-05-09T08:45:34.015Z,53.01
2019-05-09T08:46:37.856Z,52.92
2019-05-09T08:47:41.517Z,53.04
2019-05-09T08:48:45.154Z,53.43
2019-05-09T08:49:58.408Z,53.58
2019-05-09T08:51:19.386Z,53.84
2019-05-09T08:52:23.014Z,53.10
2019-05-09T08:53:27.593Z,53.11
2019-05-09T08:54:44.561Z,52.10
2019-05-09T08:55:48.105Z,52.53
2019-05-09T08:56:51.637Z,51.97
2019-05-09T08:57:55.172Z,51.74
2019-05-09T08:59:01.958Z,51.15
2019-05-09T09:00:08.162Z,50.73
2019-05-09T09:01:12.170Z,50.20
2019-05-09T09:02:21.654Z,50.15
2019-05-09T09:03:21.153Z,50.41
2019-05-09T09:04:24.624Z,50.15
2019-05-09T09:05:28.877Z,50.05
2019-05-09T09:06:32.488Z,50.17
2019-05-09T09:07:37.978Z,49.66
2019-05-09T09:08:41.157Z,49.69
2019-05-09T09:09:44.599Z,49.64
2019-05-09T09:10:48.955Z,49.48
2019-05-09T09:11:52.650Z,49.80
2019-05-09T09:12:58.110Z,49.36
2019-05-09T09:14:01.330Z,49.48
2019-05-09T09:15:07.782Z,50.09
2019-05-09T09:16:18.440Z,49.67
2019-05-09T09:17:18.732Z,48.80
2019-05-09T09:18:22.161Z,48.33
2019-05-09T09:19:27.884Z,48.50
2019-05-09T09:20:31.368Z,48.25
2019-05-09T09:21:35.036Z,47.66
2019-05-09T09:22:38.506Z,47.28
2019-05-09T09:23:46.742Z,46.83
2019-05-09T09:24:48.292Z,47.72
2019-05-09T09:25:51.761Z,47.19
2019-05-09T09:26:57.261Z,46.98
2019-05-09T09:28:00.537Z,47.01
2019-05-09T09:29:04.050Z,47.18
2019-05-09T09:30:17.636Z,47.08
2019-05-09T09:31:12.975Z,46.60
2019-05-09T09:32:19.006Z,45.05
2019-05-09T09:33:21.591Z,44.79
2019-05-09T09:34:27.119Z,44.76
2019-05-09T09:35:30.312Z,45.57
2019-05-09T09:36:33.737Z,46.03
2019-05-09T09:37:47.561Z,46.30
2019-05-09T09:38:43.375Z,46.00
2019-05-09T09:39:48.847Z,46.29
2019-05-09T09:40:51.980Z,46.17
2019-05-09T09:41:55.502Z,46.27
2019-05-09T09:42:59.072Z,46.09
2019-05-09T09:44:02.719Z,46.83
2019-05-09T09:45:07.794Z,45.97
2019-05-09T09:46:14.638Z,45.76
2019-05-09T09:47:22.382Z,45.98
2019-05-09T09:48:22.547Z,46.06
2019-05-09T09:49:28.975Z,46.44
2019-05-09T09:50:32.203Z,46.98
2019-05-09T09:51:38.043Z,47.22
2019-05-09T09:52:41.091Z,47.41
2019-05-09T09:53:44.846Z,47.50
2019-05-09T09:54:48.413Z,47.10
2019-05-09T09:55:51.875Z,47.04
2019-05-09T09:56:55.375Z,46.95
2019-05-09T09:57:59.156Z,47.17
2019-05-09T09:59:22.432Z,47.35
2019-05-09T10:00:47.639Z,47.41
2019-05-09T10:01:55.016Z,47.53
2019-05-09T10:02:58.779Z,47.26
2019-05-09T10:04:19.407Z,47.09
2019-05-09T10:05:14.979Z,47.38
2019-05-09T10:06:18.884Z,47.12
2019-05-09T10:07:22.397Z,46.88
2019-05-09T10:08:25.999Z,46.62
2019-05-09T10:09:29.432Z,46.30
2019-05-09T10:10:35.042Z,46.53
2019-05-09T10:11:39.810Z,46.46
2019-05-09T10:12:44.566Z,46.46
2019-05-09T10:13:51.744Z,46.37
2019-05-09T10:14:57.954Z,46.49
2019-05-09T10:16:05.639Z,46.54
2019-05-09T10:17:28.098Z,46.69
2019-05-09T10:18:33.328Z,46.40
2019-05-09T10:19:42.087Z,46.17
2019-05-09T10:20:48.487Z,45.89
2019-05-09T10:21:54.297Z,46.19
2019-05-09T10:23:09.027Z,45.92
2019-05-09T10:24:03.297Z,46.19
2019-05-09T10:25:07.918Z,45.62
2019-05-09T10:26:11.593Z,45.63
2019-05-09T10:27:18.513Z,45.93
2019-05-09T10:28:22.133Z,45.62
2019-05-09T10:29:27.916Z,45.66
2019-05-09T10:30:34.489Z,45.19
2019-05-09T10:31:39.235Z,44.92
2019-05-09T10:32:42.878Z,44.49
2019-05-09T10:33:48.256Z,43.88
2019-05-09T10:34:51.768Z,44.52
2019-05-09T10:35:55.278Z,43.26
2019-05-09T10:36:59.113Z,42.69
2019-05-09T10:38:03.172Z,42.95
2019-05-09T10:39:08.262Z,43.17
2019-05-09T10:40:15.145Z,42.98
2019-05-09T10:41:18.917Z,43.29
2019-05-09T10:42:24.426Z,42.45
2019-05-09T10:43:38.108Z,42.02
2019-05-09T10:44:37.507Z,41.89
2019-05-09T10:45:59.295Z,41.79
2019-05-09T10:47:04.755Z,42.14
2019-05-09T10:48:08.487Z,42.43
2019-05-09T10:49:12.198Z,42.68
2019-05-09T10:50:18.292Z,42.71
2019-05-09T10:51:21.086Z,42.59
2019-05-09T10:52:30.293Z,42.73
2019-05-09T10:53:33.736Z,43.10
2019-05-09T10:54:37.164Z,43.18
2019-05-09T10:55:40.617Z,43.14
2019-05-09T10:56:44.153Z,43.42
2019-05-09T10:57:52.058Z,43.21
2019-05-09T10:58:53.319Z,43.49
2019-05-09T10:59:57.962Z,43.86
2019-05-09T11:01:01.589Z,44.23
2019-05-09T11:02:09.210Z,44.31
2019-05-09T11:03:11.517Z,44.52
2019-05-09T11:04:15.308Z,44.24
2019-05-09T11:05:19.025Z,44.55
2019-05-09T11:06:22.612Z,44.55
2019-05-09T11:07:28.703Z,44.56
2019-05-09T11:08:31.329Z,44.95
2019-05-09T11:09:35.384Z,45.12
2019-05-09T11:10:39.924Z,45.22
2019-05-09T11:11:44.242Z,45.51
2019-05-09T11:12:48.184Z,46.09
2019-05-09T11:13:51.957Z,46.96
2019-05-09T11:14:55.472Z,47.36
2019-05-09T11:15:59.074Z,48.12
2019-05-09T11:17:10.757Z,48.62
2019-05-09T11:18:08.280Z,48.97
2019-05-09T11:19:11.724Z,49.73
2019-05-09T11:20:15.212Z,50.39
2019-05-09T11:21:19.463Z,51.91
2019-05-09T11:22:23.651Z,53.43
2019-05-09T11:23:29.184Z,53.93
2019-05-09T11:24:44.923Z,55.36
2019-05-09T11:25:38.013Z,54.71
2019-05-09T11:26:41.705Z,55.59
2019-05-09T11:27:45.264Z,55.72
2019-05-09T11:28:48.703Z,55.61
2019-05-09T11:29:52.207Z,56.03
2019-05-09T11:30:55.705Z,56.28
2019-05-09T11:31:59.238Z,56.22
2019-05-09T11:33:02.672Z,55.67
2019-05-09T11:34:08.906Z,56.11
2019-05-09T11:35:11.542Z,55.75
2019-05-09T11:36:19.986Z,56.04
2019-05-09T11:37:22.202Z,56.22
2019-05-09T11:38:32.180Z,56.91
2019-05-09T11:39:38.202Z,57.14
2019-05-09T11:40:37.845Z,57.06
2019-05-09T11:41:41.460Z,56.68
2019-05-09T11:42:44.907Z,56.93
2019-05-09T11:43:48.757Z,56.89
2019-05-09T11:44:52.253Z,57.02
2019-05-09T11:45:55.684Z,57.15
2019-05-09T11:46:59.208Z,57.08
2019-05-09T11:48:02.747Z,56.83
2019-05-09T11:49:08.352Z,56.61
2019-05-09T11:50:11.512Z,55.63
2019-05-09T11:51:18.241Z,55.65
2019-05-09T11:52:20.183Z,54.73
2019-05-09T11:53:23.614Z,54.60
2019-05-09T11:54:27.958Z,54.77
2019-05-09T11:55:36.039Z,54.66
2019-05-09T11:56:38.492Z,54.77
2019-05-09T11:57:42.028Z,55.13
2019-05-09T11:58:47.825Z,52.46
2019-05-09T11:59:50.613Z,53.35
2019-05-09T12:00:54.106Z,52.52
2019-05-09T12:01:58.570Z,52.22
2019-05-09T12:03:02.389Z,51.23
2019-05-09T12:04:07.994Z,51.87
2019-05-09T12:05:11.136Z,52.17
2019-05-09T12:06:16.154Z,52.35
2019-05-09T12:07:19.784Z,52.82
2019-05-09T12:08:23.246Z,51.43
2019-05-09T12:09:28.815Z,52.53
2019-05-09T12:10:31.893Z,49.23
2019-05-09T12:11:39.133Z,49.69
2019-05-09T12:12:40.608Z,47.43
2019-05-09T12:13:44.057Z,48.42
2019-05-09T12:14:48.347Z,47.87
2019-05-09T12:15:51.932Z,48.31
2019-05-09T12:16:55.434Z,47.53
2019-05-09T12:18:05.385Z,47.08
2019-05-09T12:19:04.118Z,45.40
2019-05-09T12:20:12.572Z,44.69
2019-05-09T12:21:13.045Z,43.02
2019-05-09T12:22:19.143Z,42.68
2019-05-09T12:23:21.687Z,43.51
2019-05-09T12:24:25.282Z,43.38
2019-05-09T12:25:28.719Z,42.02
2019-05-09T12:26:32.222Z,39.17
2019-05-09T12:27:35.670Z,40.26
2019-05-09T12:28:39.180Z,39.92
2019-05-09T12:29:42.638Z,40.06
2019-05-09T12:30:48.788Z,40.29
2019-05-09T12:31:51.350Z,40.30
2019-05-09T12:32:54.793Z,39.03
2019-05-09T12:33:59.423Z,36.92
2019-05-09T12:35:03.272Z,37.80
2019-05-09T12:36:09.183Z,37.43
2019-05-09T12:37:12.143Z,37.75
2019-05-09T12:38:17.898Z,37.45
2019-05-09T12:39:20.796Z,37.45
2019-05-09T12:40:24.245Z,37.59
2019-05-09T12:41:31.448Z,36.90
2019-05-09T12:42:32.850Z,36.30
2019-05-09T12:43:38.197Z,37.29
2019-05-09T12:44:41.726Z,36.50
2019-05-09T12:45:47.670Z,36.31
2019-05-09T12:46:50.340Z,36.02
2019-05-09T12:48:06.443Z,36.01
2019-05-09T12:48:59.395Z,34.65
2019-05-09T12:50:03.254Z,34.36
2019-05-09T12:51:08.220Z,32.18
2019-05-09T12:52:11.777Z,33.74
2019-05-09T12:53:15.356Z,32.31
2019-05-09T12:54:19.226Z,33.80
2019-05-09T12:55:22.810Z,32.65
2019-05-09T12:56:28.465Z,32.34
2019-05-09T12:57:31.548Z,33.40
2019-05-09T12:58:34.982Z,33.87
2019-05-09T12:59:48.973Z,34.76
2019-05-09T13:00:43.842Z,34.73
2019-05-09T13:01:49.109Z,34.62
2019-05-09T13:02:52.431Z,34.01
2019-05-09T13:03:58.338Z,34.42
2019-05-09T13:05:01.134Z,34.33
2019-05-09T13:06:04.777Z,34.33
2019-05-09T13:07:08.552Z,34.79
2019-05-09T13:08:12.096Z,34.85
2019-05-09T13:09:17.775Z,34.62
2019-05-09T13:10:20.783Z,33.66
2019-05-09T13:11:24.219Z,33.72
2019-05-09T13:12:29.167Z,33.94
2019-05-09T13:13:32.740Z,33.44
2019-05-09T13:14:37.979Z,33.57
2019-05-09T13:15:49.007Z,33.53
2019-05-09T13:17:08.114Z,33.86
2019-05-09T13:18:22.008Z,34.37
2019-05-09T13:19:18.617Z,33.54
2019-05-09T13:20:22.215Z,32.23
2019-05-09T13:21:28.634Z,31.62
2019-05-09T13:22:30.899Z,31.90
2019-05-09T13:23:34.437Z,32.07
2019-05-09T13:24:38.049Z,32.07
2019-05-09T13:25:41.525Z,31.90
2019-05-09T13:26:48.000Z,31.28
2019-05-09T13:27:52.844Z,30.46
2019-05-09T13:28:58.820Z,31.16
2019-05-09T13:30:02.509Z,31.01
2019-05-09T13:31:08.269Z,31.01
2019-05-09T13:32:11.172Z,31.29
2019-05-09T13:33:14.679Z,31.96
2019-05-09T13:34:18.918Z,32.10
2019-05-09T13:35:22.621Z,31.97
2019-05-09T13:36:28.348Z,31.06
2019-05-09T13:37:31.387Z,31.08
2019-05-09T13:38:34.964Z,31.26
2019-05-09T13:39:39.633Z,31.18
2019-05-09T13:40:43.386Z,31.24
2019-05-09T13:41:47.594Z,31.29
2019-05-09T13:42:51.230Z,31.75
2019-05-09T13:43:59.242Z,31.74
2019-05-09T13:44:59.943Z,31.64
2019-05-09T13:46:03.411Z,31.70
2019-05-09T13:47:10.634Z,31.72
2019-05-09T13:48:26.450Z,30.58
2019-05-09T13:49:19.323Z,30.06
2019-05-09T13:50:22.580Z,30.43
2019-05-09T13:51:26.077Z,30.15
2019-05-09T13:52:29.468Z,29.15
2019-05-09T13:53:32.979Z,28.91
2019-05-09T13:54:38.271Z,29.15
2019-05-09T13:55:41.579Z,28.76